createdAt,value
2022-12-01T00:00:27.605Z,27.23
2022-12-01T00:02:54.212Z,28.10
2022-12-01T00:05:20.727Z,27.80
2022-12-01T00:07:48.495Z,29.10
2022-12-01T00:10:27.109Z,27.93
2022-12-01T00:12:53.739Z,27.63
2022-12-01T00:15:20.376Z,26.60
2022-12-01T00:17:47.832Z,27.33
2022-12-01T00:20:14.744Z,33.30
2022-12-01T00:22:44.720Z,27.27
2022-12-01T00:25:11.457Z,33.50
2022-12-01T00:27:37.914Z,28.77
2022-12-01T00:30:05.122Z,32.13
2022-12-01T00:32:31.656Z,30.30
2022-12-01T00:34:58.224Z,30.93
2022-12-01T00:37:24.693Z,31.37
2022-12-01T00:39:51.297Z,28.77
2022-12-01T00:42:20.892Z,32.10
2022-12-01T00:44:47.858Z,29.57
2022-12-01T00:47:14.358Z,28.03
2022-12-01T00:49:40.925Z,28.57
2022-12-01T00:52:07.351Z,31.37
2022-12-01T00:54:33.835Z,33.63
2022-12-01T00:57:00.332Z,29.10
2022-12-01T00:59:26.886Z,29.90
2022-12-01T01:01:53.373Z,30.07
2022-12-01T01:04:19.846Z,28.13
2022-12-01T01:06:46.324Z,31.10
2022-12-01T01:09:12.946Z,32.87
2022-12-01T01:11:39.540Z,28.77
2022-12-01T01:14:06.152Z,29.77
2022-12-01T01:16:32.764Z,30.87
2022-12-01T01:18:59.275Z,29.23
2022-12-01T01:21:25.810Z,29.10
2022-12-01T01:23:52.468Z,27.27
2022-12-01T01:26:28.916Z,26.93
2022-12-01T01:28:59.268Z,24.00
2022-12-01T01:31:26.039Z,26.83
2022-12-01T01:33:52.454Z,30.30
2022-12-01T01:36:18.946Z,28.73
2022-12-01T01:38:45.533Z,30.67
2022-12-01T01:41:12.189Z,30.53
2022-12-01T01:43:39.968Z,26.73
2022-12-01T01:46:06.688Z,28.43
2022-12-01T01:48:33.781Z,25.07
2022-12-01T01:51:00.449Z,23.67
2022-12-01T01:53:26.888Z,25.50
2022-12-01T01:55:53.352Z,26.10
2022-12-01T01:58:19.805Z,27.87
2022-12-01T02:00:46.425Z,25.80
2022-12-01T02:03:13.304Z,24.47
2022-12-01T02:05:39.773Z,28.37
2022-12-01T02:08:06.522Z,26.83
2022-12-01T02:10:36.095Z,25.60
2022-12-01T02:13:08.831Z,26.47
2022-12-01T02:15:44.808Z,26.23
2022-12-01T02:18:14.259Z,29.70
2022-12-01T02:20:40.657Z,23.23
2022-12-01T02:23:22.705Z,25.23
2022-12-01T02:25:50.703Z,27.23
2022-12-01T02:28:17.157Z,27.93
2022-12-01T02:31:12.671Z,27.60
2022-12-01T02:33:54.565Z,25.57
2022-12-01T02:36:56.554Z,29.10
2022-12-01T02:39:29.675Z,25.73
2022-12-01T02:42:01.257Z,31.07
2022-12-01T02:44:32.972Z,27.60
2022-12-01T02:47:15.134Z,30.73
2022-12-01T02:49:43.207Z,28.63
2022-12-01T02:52:09.630Z,27.13
2022-12-01T02:54:36.112Z,30.73
2022-12-01T02:57:02.535Z,30.77
2022-12-01T02:59:28.988Z,28.90
2022-12-01T03:02:16.261Z,29.80
2022-12-01T03:05:01.635Z,32.00
2022-12-01T03:07:47.089Z,30.17
2022-12-01T03:10:28.927Z,28.87
2022-12-01T03:13:08.638Z,24.80
2022-12-01T03:15:47.420Z,31.97
2022-12-01T03:18:13.897Z,27.43
2022-12-01T03:20:42.510Z,32.00
2022-12-01T03:23:10.041Z,34.47
2022-12-01T03:25:37.253Z,31.73
2022-12-01T03:28:22.224Z,32.00
2022-12-01T03:30:50.852Z,28.37
2022-12-01T03:33:19.298Z,35.23
2022-12-01T03:35:48.352Z,27.53
2022-12-01T03:38:16.850Z,26.93
2022-12-01T03:40:43.279Z,30.13
2022-12-01T03:43:10.748Z,24.37
2022-12-01T03:45:46.788Z,27.60
2022-12-01T03:48:13.274Z,28.27
2022-12-01T03:50:49.592Z,28.03
2022-12-01T03:53:19.470Z,28.60
2022-12-01T03:55:46.827Z,29.30
2022-12-01T03:58:17.634Z,28.03
2022-12-01T04:00:44.119Z,27.57
2022-12-01T04:03:16.403Z,28.70
2022-12-01T04:05:42.881Z,29.43
2022-12-01T04:08:09.425Z,27.67
2022-12-01T04:10:36.118Z,28.03
2022-12-01T04:13:02.591Z,26.77
2022-12-01T04:15:29.092Z,28.73
2022-12-01T04:17:55.582Z,27.53
2022-12-01T04:20:22.084Z,26.87
2022-12-01T04:22:48.608Z,30.63
2022-12-01T04:25:15.134Z,27.67
2022-12-01T04:27:41.580Z,29.43
2022-12-01T04:30:08.269Z,29.50
2022-12-01T04:32:38.538Z,29.77
2022-12-01T04:35:05.199Z,27.83
2022-12-01T04:37:31.692Z,30.13
2022-12-01T04:39:58.137Z,27.57
2022-12-01T04:42:24.564Z,30.87
2022-12-01T04:44:51.010Z,32.50
2022-12-01T04:47:17.427Z,30.67
2022-12-01T04:49:43.898Z,29.93
2022-12-01T04:52:10.493Z,29.33
2022-12-01T04:54:37.201Z,32.40
2022-12-01T04:57:03.847Z,28.17
2022-12-01T04:59:30.302Z,35.20
2022-12-01T05:01:56.957Z,29.07
2022-12-01T05:04:23.504Z,27.47
2022-12-01T05:06:49.995Z,26.43
2022-12-01T05:09:17.749Z,31.83
2022-12-01T05:11:44.616Z,33.17
2022-12-01T05:14:11.082Z,28.43
2022-12-01T05:16:37.668Z,25.03
2022-12-01T05:19:23.481Z,23.57
2022-12-01T05:21:50.602Z,27.60
2022-12-01T05:24:17.538Z,26.37
2022-12-01T05:26:44.139Z,26.47
2022-12-01T05:29:10.801Z,23.87
2022-12-01T05:31:37.455Z,22.73
2022-12-01T05:34:03.894Z,26.17
2022-12-01T05:36:30.351Z,24.97
2022-12-01T05:38:56.779Z,25.13
2022-12-01T05:41:23.212Z,25.40
2022-12-01T05:43:49.644Z,26.37
2022-12-01T05:46:16.114Z,24.20
2022-12-01T05:48:42.572Z,27.23
2022-12-01T05:51:13.017Z,25.10
2022-12-01T05:53:39.486Z,25.33
2022-12-01T05:56:06.662Z,20.87
2022-12-01T05:58:33.117Z,23.57
2022-12-01T06:00:59.792Z,23.77
2022-12-01T06:03:26.232Z,22.73
2022-12-01T06:05:52.672Z,22.13
2022-12-01T06:08:19.219Z,25.13
2022-12-01T06:10:45.790Z,22.63
2022-12-01T06:13:12.262Z,22.33
2022-12-01T06:15:38.686Z,25.47
2022-12-01T06:18:05.155Z,25.43
2022-12-01T06:20:31.614Z,26.97
2022-12-01T06:22:59.660Z,26.73
2022-12-01T06:25:26.187Z,22.43
2022-12-01T06:27:56.556Z,29.37
2022-12-01T06:30:23.003Z,26.97
2022-12-01T06:32:49.451Z,24.93
2022-12-01T06:35:15.881Z,23.33
2022-12-01T06:37:42.564Z,24.47
2022-12-01T06:40:09.789Z,27.93
2022-12-01T06:42:36.241Z,29.37
2022-12-01T06:45:02.883Z,32.43
2022-12-01T06:47:29.351Z,28.50
2022-12-01T06:49:55.798Z,28.20
2022-12-01T06:52:22.252Z,27.07
2022-12-01T06:54:48.680Z,26.53
2022-12-01T06:57:15.598Z,25.87
2022-12-01T06:59:42.417Z,25.10
2022-12-01T07:02:10.758Z,29.33
2022-12-01T07:04:37.277Z,25.80
2022-12-01T07:07:04.585Z,22.00
2022-12-01T07:09:31.025Z,25.30
2022-12-01T07:11:57.462Z,28.37
2022-12-01T07:14:24.281Z,27.60
2022-12-01T07:16:50.917Z,22.70
2022-12-01T07:19:17.424Z,21.43
2022-12-01T07:21:43.857Z,24.27
2022-12-01T07:24:12.622Z,22.37
2022-12-01T07:26:39.150Z,18.00
2022-12-01T07:29:05.626Z,24.37
2022-12-01T07:31:32.139Z,23.77
2022-12-01T07:33:58.682Z,18.57
2022-12-01T07:36:25.157Z,18.70
2022-12-01T07:38:51.605Z,25.13
2022-12-01T07:41:21.024Z,22.27
2022-12-01T07:43:48.060Z,23.50
2022-12-01T07:46:21.804Z,22.27
2022-12-01T07:48:49.486Z,24.97
2022-12-01T07:51:16.840Z,21.33
2022-12-01T07:53:44.356Z,26.87
2022-12-01T07:56:10.881Z,24.00
2022-12-01T07:58:37.407Z,20.47
2022-12-01T08:01:11.976Z,20.30
2022-12-01T08:03:38.778Z,25.83
2022-12-01T08:06:05.419Z,20.60
2022-12-01T08:08:32.521Z,18.80
2022-12-01T08:11:02.802Z,21.27
2022-12-01T08:13:29.382Z,25.30
2022-12-01T08:15:55.904Z,20.03
2022-12-01T08:18:23.133Z,18.90
2022-12-01T08:20:50.072Z,22.83
2022-12-01T08:23:16.564Z,20.60
2022-12-01T08:25:42.998Z,23.47
2022-12-01T08:28:09.415Z,24.73
2022-12-01T08:30:36.107Z,22.90
2022-12-01T08:33:02.540Z,19.93
2022-12-01T08:35:29.050Z,21.67
2022-12-01T08:37:55.519Z,19.10
2022-12-01T08:40:21.980Z,20.40
2022-12-01T08:42:48.465Z,19.13
2022-12-01T08:45:15.001Z,17.70
2022-12-01T08:47:41.429Z,17.50
2022-12-01T08:50:08.068Z,20.60
2022-12-01T08:52:34.691Z,19.50
2022-12-01T08:55:01.176Z,19.73
2022-12-01T08:57:29.166Z,19.53
2022-12-01T08:59:55.730Z,20.10
2022-12-01T09:02:25.192Z,20.63
2022-12-01T09:04:51.809Z,22.37
2022-12-01T09:07:22.974Z,21.10
2022-12-01T09:09:52.898Z,24.87
2022-12-01T09:12:19.408Z,19.67
2022-12-01T09:14:48.470Z,22.73
2022-12-01T09:17:15.370Z,24.10
2022-12-01T09:19:42.109Z,25.77
2022-12-01T09:22:08.914Z,25.63
2022-12-01T09:24:35.371Z,27.10
2022-12-01T09:27:03.457Z,23.60
2022-12-01T09:29:29.973Z,30.43
2022-12-01T09:31:57.322Z,24.53
2022-12-01T09:34:23.781Z,26.57
2022-12-01T09:36:50.270Z,26.60
2022-12-01T09:39:20.171Z,25.30
2022-12-01T09:41:58.971Z,26.17
2022-12-01T09:44:34.517Z,26.87
2022-12-01T09:47:05.679Z,23.17
2022-12-01T09:49:38.294Z,24.50
2022-12-01T09:52:04.866Z,23.63
2022-12-01T09:54:31.331Z,21.77
2022-12-01T09:56:59.662Z,23.83
2022-12-01T09:59:27.424Z,24.53
2022-12-01T10:01:55.334Z,25.70
2022-12-01T10:04:41.875Z,23.10
2022-12-01T10:07:18.095Z,25.70
2022-12-01T10:09:47.988Z,23.87
2022-12-01T10:12:15.526Z,20.20
2022-12-01T10:14:43.389Z,22.60
2022-12-01T10:17:14.335Z,22.40
2022-12-01T10:19:56.128Z,22.73
2022-12-01T10:22:32.093Z,23.70
2022-12-01T10:25:06.021Z,17.97
2022-12-01T10:27:47.898Z,21.03
2022-12-01T10:30:15.697Z,20.87
2022-12-01T10:32:48.021Z,17.77
2022-12-01T10:35:15.659Z,19.60
2022-12-01T10:37:42.206Z,19.87
2022-12-01T10:40:12.629Z,19.53
2022-12-01T10:42:48.601Z,16.27
2022-12-01T10:45:28.319Z,19.77
2022-12-01T10:48:08.162Z,19.17
2022-12-01T10:50:35.859Z,23.50
2022-12-01T10:53:02.420Z,22.60
2022-12-01T10:55:30.875Z,21.33
2022-12-01T10:57:57.786Z,23.40
2022-12-01T11:00:58.069Z,21.90
2022-12-01T11:03:22.950Z,17.10
2022-12-01T11:05:53.928Z,22.13
2022-12-01T11:08:39.116Z,19.50
2022-12-01T11:11:05.803Z,17.47
2022-12-01T11:13:34.307Z,18.97
2022-12-01T11:16:01.740Z,18.73
2022-12-01T11:18:31.427Z,21.00
2022-12-01T11:21:08.646Z,17.00
2022-12-01T11:23:39.116Z,19.97
2022-12-01T11:26:22.493Z,24.80
2022-12-01T11:28:52.515Z,21.37
2022-12-01T11:31:19.651Z,22.93
2022-12-01T11:33:50.725Z,24.47
2022-12-01T11:36:26.636Z,22.97
2022-12-01T11:38:59.912Z,21.57
2022-12-01T11:41:30.911Z,24.90
2022-12-01T11:46:50.438Z,26.93
2022-12-01T11:49:30.580Z,28.13
2022-12-01T11:51:57.040Z,22.53
2022-12-01T11:54:24.559Z,23.53
2022-12-01T11:57:17.400Z,18.60
2022-12-01T11:59:38.413Z,25.13
2022-12-01T12:02:07.170Z,19.03
2022-12-01T12:04:48.900Z,20.23
2022-12-01T12:07:24.621Z,15.10
2022-12-01T12:10:09.968Z,15.43
2022-12-01T12:12:36.397Z,18.97
2022-12-01T12:15:21.579Z,20.47
2022-12-01T12:18:06.987Z,23.03
2022-12-01T12:20:36.251Z,20.43
2022-12-01T12:23:15.132Z,19.87
2022-12-01T12:25:52.303Z,20.10
2022-12-01T12:28:41.018Z,20.73
2022-12-01T12:31:10.672Z,16.90
2022-12-01T12:33:40.032Z,17.83
2022-12-01T12:36:25.308Z,14.80
2022-12-01T12:38:59.182Z,17.57
2022-12-01T12:41:44.433Z,17.80
2022-12-01T12:44:16.924Z,16.30
2022-12-01T12:46:46.502Z,17.97
2022-12-01T12:49:20.496Z,16.00
2022-12-01T12:51:52.734Z,20.60
2022-12-01T12:54:22.291Z,19.87
2022-12-01T12:56:49.660Z,18.47
2022-12-01T12:59:17.898Z,21.50
2022-12-01T13:01:45.442Z,22.50
2022-12-01T13:04:30.812Z,19.23
2022-12-01T13:07:00.402Z,21.00
2022-12-01T13:09:28.553Z,21.43
2022-12-01T13:12:10.346Z,19.57
2022-12-01T13:14:39.380Z,23.93
2022-12-01T13:17:16.800Z,23.30
2022-12-01T13:19:43.250Z,23.37
2022-12-01T13:22:09.931Z,21.23
2022-12-01T13:24:36.439Z,20.10
2022-12-01T13:27:04.193Z,20.53
2022-12-01T13:29:33.577Z,18.30
2022-12-01T13:32:00.079Z,15.37
2022-12-01T13:34:30.074Z,17.40
2022-12-01T13:36:56.961Z,16.43
2022-12-01T13:39:28.111Z,19.03
2022-12-01T13:42:07.082Z,20.30
2022-12-01T13:44:43.255Z,21.20
2022-12-01T13:47:09.716Z,21.73
2022-12-01T13:49:42.154Z,19.47
2022-12-01T13:52:20.948Z,22.07
2022-12-01T13:55:06.318Z,19.87
2022-12-01T13:57:53.039Z,21.33
2022-12-01T14:00:23.798Z,21.40
2022-12-01T14:03:09.168Z,20.07
2022-12-01T14:05:41.851Z,19.73
2022-12-01T14:08:24.680Z,20.47
2022-12-01T14:11:05.555Z,22.03
2022-12-01T14:13:45.324Z,20.97
2022-12-01T14:16:11.864Z,21.80
2022-12-01T14:18:49.567Z,19.57
2022-12-01T14:21:16.218Z,20.27
2022-12-01T14:24:02.279Z,22.27
2022-12-01T14:26:29.614Z,22.17
2022-12-01T14:28:56.151Z,20.10
2022-12-01T14:31:23.458Z,19.43
2022-12-01T14:33:51.109Z,18.13
2022-12-01T14:36:23.195Z,15.23
2022-12-01T14:38:54.384Z,15.27
2022-12-01T14:41:25.118Z,19.23
2022-12-01T14:44:05.105Z,21.23
2022-12-01T14:46:33.692Z,18.10
2022-12-01T14:49:00.223Z,18.30
2022-12-01T14:51:33.416Z,20.03
2022-12-01T14:54:01.669Z,21.63
2022-12-01T14:56:28.287Z,21.90
2022-12-01T14:58:59.373Z,18.63
2022-12-01T15:01:35.550Z,18.93
2022-12-01T15:04:03.099Z,16.10
2022-12-01T15:06:30.170Z,18.30
2022-12-01T15:09:32.237Z,16.37
2022-12-01T15:11:53.633Z,15.07
2022-12-01T15:14:21.432Z,21.27
2022-12-01T15:16:47.925Z,18.83
2022-12-01T15:19:44.209Z,18.80
2022-12-01T15:22:12.703Z,18.53
2022-12-01T15:24:39.156Z,16.10
2022-12-01T15:27:20.422Z,16.87
2022-12-01T15:29:47.091Z,15.20
2022-12-01T15:32:14.694Z,15.90
2022-12-01T15:34:41.609Z,17.57
2022-12-01T15:37:13.102Z,19.50
2022-12-01T15:39:41.321Z,23.10
2022-12-01T15:42:07.806Z,21.17
2022-12-01T15:44:37.601Z,21.63
2022-12-01T15:47:22.778Z,20.47
2022-12-01T15:49:49.318Z,19.17
2022-12-01T15:52:16.414Z,21.67
2022-12-01T15:54:46.424Z,18.30
2022-12-01T15:57:14.397Z,15.57
2022-12-01T15:59:41.507Z,13.17
2022-12-01T16:02:22.885Z,14.33
2022-12-01T16:04:49.792Z,14.90
2022-12-01T16:07:16.436Z,15.00
2022-12-01T16:09:42.950Z,17.13
2022-12-01T16:12:09.345Z,16.20
2022-12-01T16:14:36.118Z,17.97
2022-12-01T16:17:03.003Z,19.77
2022-12-01T16:19:33.195Z,15.80
2022-12-01T16:22:12.574Z,22.37
2022-12-01T16:24:45.210Z,19.80
2022-12-01T16:27:19.239Z,20.93
2022-12-01T16:29:52.704Z,17.30
2022-12-01T16:32:21.958Z,19.37
2022-12-01T16:34:49.576Z,17.83
2022-12-01T16:37:16.121Z,18.13
2022-12-01T16:39:42.649Z,17.63
2022-12-01T16:42:11.511Z,16.73
2022-12-01T16:44:37.953Z,18.17
2022-12-01T16:47:09.463Z,19.00
2022-12-01T16:49:36.119Z,17.17
2022-12-01T16:52:22.087Z,17.27
2022-12-01T16:54:49.880Z,14.93
2022-12-01T16:57:19.545Z,18.70
2022-12-01T16:59:45.997Z,17.87
2022-12-01T17:02:12.530Z,18.47
2022-12-01T17:04:38.992Z,16.87
2022-12-01T17:07:05.427Z,21.43
2022-12-01T17:09:31.873Z,17.30
2022-12-01T17:11:59.303Z,17.43
2022-12-01T17:14:25.806Z,17.40
2022-12-01T17:16:52.244Z,19.50
2022-12-01T17:19:21.041Z,18.03
2022-12-01T17:21:47.504Z,18.53
2022-12-01T17:24:18.692Z,18.53
2022-12-01T17:26:45.583Z,20.43
2022-12-01T17:29:12.044Z,16.13
2022-12-01T17:31:38.577Z,25.00
2022-12-01T17:34:05.122Z,17.57
2022-12-01T17:36:31.555Z,19.10
2022-12-01T17:38:58.891Z,16.73
2022-12-01T17:41:25.532Z,22.33
2022-12-01T17:43:52.021Z,18.23
2022-12-01T17:46:18.734Z,18.10
2022-12-01T17:48:45.718Z,19.23
2022-12-01T17:51:12.616Z,15.90
2022-12-01T17:53:42.065Z,15.23
2022-12-01T17:56:12.240Z,18.63
2022-12-01T17:58:40.033Z,19.83
2022-12-01T18:01:06.732Z,17.27
2022-12-01T18:03:33.212Z,18.97
2022-12-01T18:06:00.312Z,17.37
2022-12-01T18:08:27.276Z,15.67
2022-12-01T18:10:53.964Z,14.47
2022-12-01T18:13:21.553Z,15.80
2022-12-01T18:15:48.452Z,22.67
2022-12-01T18:18:14.986Z,20.63
2022-12-01T18:20:41.850Z,24.23
2022-12-01T18:23:08.487Z,21.23
2022-12-01T18:25:36.155Z,18.93
2022-12-01T18:28:03.139Z,16.77
2022-12-01T18:30:29.974Z,19.80
2022-12-01T18:32:58.272Z,22.97
2022-12-01T18:35:30.235Z,18.23
2022-12-01T18:37:58.172Z,22.20
2022-12-01T18:40:24.916Z,18.70
2022-12-01T18:42:51.364Z,21.40
2022-12-01T18:45:21.331Z,21.93
2022-12-01T18:47:48.055Z,21.50
2022-12-01T18:50:14.597Z,18.33
2022-12-01T18:52:41.061Z,20.63
2022-12-01T18:55:07.852Z,17.57
2022-12-01T18:57:34.328Z,22.17
2022-12-01T19:00:00.804Z,22.93
2022-12-01T19:02:29.479Z,22.77
2022-12-01T19:04:55.970Z,21.63
2022-12-01T19:07:29.539Z,25.27
2022-12-01T19:09:56.514Z,20.30
2022-12-01T19:12:23.056Z,21.10
2022-12-01T19:14:50.039Z,23.03
2022-12-01T19:17:16.888Z,21.10
2022-12-01T19:19:43.346Z,23.77
2022-12-01T19:22:10.861Z,25.20
2022-12-01T19:24:37.532Z,22.83
2022-12-01T19:27:07.089Z,28.23
2022-12-01T19:29:33.946Z,23.63
2022-12-01T19:32:00.718Z,26.53
2022-12-01T19:34:27.326Z,27.43
2022-12-01T19:36:54.168Z,23.53
2022-12-01T19:39:20.740Z,26.07
2022-12-01T19:41:47.261Z,21.90
2022-12-01T19:44:13.842Z,26.80
2022-12-01T19:46:40.444Z,24.23
2022-12-01T19:49:07.309Z,19.73
2022-12-01T19:51:37.390Z,19.70
2022-12-01T19:54:04.509Z,27.30
2022-12-01T19:56:31.772Z,22.93
2022-12-01T19:58:58.445Z,26.27
2022-12-01T20:01:25.222Z,25.07
2022-12-01T20:03:52.305Z,21.47
2022-12-01T20:06:22.881Z,21.33
2022-12-01T20:08:49.495Z,22.60
2022-12-01T20:11:16.056Z,24.33
2022-12-01T20:13:43.047Z,23.40
2022-12-01T20:16:16.701Z,23.47
2022-12-01T20:18:43.493Z,24.97
2022-12-01T20:21:11.057Z,25.80
2022-12-01T20:23:37.751Z,24.60
2022-12-01T20:26:05.936Z,23.63
2022-12-01T20:28:32.560Z,21.90
2022-12-01T20:30:59.070Z,25.00
2022-12-01T20:33:25.581Z,27.40
2022-12-01T20:35:52.162Z,23.77
2022-12-01T20:38:22.913Z,21.07
2022-12-01T20:40:52.480Z,26.07
2022-12-01T20:43:19.155Z,25.27
2022-12-01T20:45:45.736Z,24.77
2022-12-01T20:48:12.268Z,28.43
2022-12-01T20:50:38.720Z,29.97
2022-12-01T20:53:05.558Z,30.70
2022-12-01T20:55:32.307Z,30.53
2022-12-01T20:57:59.021Z,29.07
2022-12-01T21:00:25.462Z,31.70
2022-12-01T21:02:52.171Z,28.10
2022-12-01T21:05:18.736Z,25.97
2022-12-01T21:07:45.359Z,22.37
2022-12-01T21:10:15.679Z,27.03
2022-12-01T21:13:05.702Z,27.47
2022-12-01T21:15:32.429Z,26.63
2022-12-01T21:17:59.637Z,25.20
2022-12-01T21:20:36.733Z,23.00
2022-12-01T21:23:09.355Z,24.20
2022-12-01T21:25:37.976Z,26.23
2022-12-01T21:28:11.784Z,23.67
2022-12-01T21:30:38.426Z,24.60
2022-12-01T21:33:17.529Z,27.20
2022-12-01T21:35:44.061Z,26.80
2022-12-01T21:38:17.724Z,24.63
2022-12-01T21:40:47.004Z,26.63
2022-12-01T21:43:16.524Z,27.27
2022-12-01T21:45:43.068Z,22.60
2022-12-01T21:48:19.612Z,25.27
2022-12-01T21:50:49.428Z,24.40
2022-12-01T21:53:20.230Z,23.80
2022-12-01T21:55:47.112Z,22.30
2022-12-01T21:58:34.647Z,23.40
2022-12-01T22:01:01.404Z,24.43
2022-12-01T22:03:31.914Z,26.73
2022-12-01T22:06:27.676Z,21.47
2022-12-01T22:08:46.873Z,24.57
2022-12-01T22:11:15.962Z,23.13
2022-12-01T22:13:42.543Z,28.17
2022-12-01T22:16:29.453Z,23.57
2022-12-01T22:18:56.682Z,23.50
2022-12-01T22:21:23.418Z,23.40
2022-12-01T22:23:50.496Z,23.93
2022-12-01T22:26:19.159Z,28.17
2022-12-01T22:28:45.787Z,26.33
2022-12-01T22:31:15.765Z,26.57
2022-12-01T22:33:42.623Z,31.23
2022-12-01T22:36:16.981Z,27.77
2022-12-01T22:38:43.430Z,25.77
2022-12-01T22:41:12.238Z,28.07
2022-12-01T22:43:38.711Z,24.10
2022-12-01T22:46:11.543Z,23.53
2022-12-01T22:48:42.235Z,26.63
2022-12-01T22:51:14.867Z,23.60
2022-12-01T22:53:41.662Z,23.87
2022-12-01T22:56:28.459Z,24.40
2022-12-01T22:58:54.992Z,26.53
2022-12-01T23:01:27.538Z,24.20
2022-12-01T23:04:13.365Z,24.87
2022-12-01T23:06:55.134Z,28.80
2022-12-01T23:09:22.095Z,23.93
2022-12-01T23:11:49.754Z,26.00
2022-12-01T23:14:16.810Z,24.47
2022-12-01T23:16:43.355Z,27.17
2022-12-01T23:19:09.806Z,26.07
2022-12-01T23:21:36.400Z,26.43
2022-12-01T23:24:03.090Z,29.13
2022-12-01T23:26:29.626Z,26.13
2022-12-01T23:28:56.632Z,28.13
2022-12-01T23:31:24.759Z,24.67
2022-12-01T23:33:51.302Z,26.57
2022-12-01T23:36:27.822Z,27.13
2022-12-01T23:38:58.694Z,29.00
2022-12-01T23:41:28.756Z,30.67
2022-12-01T23:43:55.601Z,25.80
2022-12-01T23:46:25.192Z,28.77
2022-12-01T23:48:54.284Z,25.90
2022-12-01T23:51:39.646Z,26.90
2022-12-01T23:54:26.423Z,30.03
2022-12-01T23:56:53.689Z,28.50
2022-12-01T23:59:20.250Z,32.57
